Time;durP1;ratioP1;P1;durP2;ratioP2;P2;SDS_P1;SDS_P2;PMS_P1;PMS_P2;Temp;Humidity;BMP_temperature;BMP_pressure;BME280_temperature;BME280_humidity;BME280_pressure;Samples;Min_cycle;Max_cycle;Signal;HPM_P1;HPM_P2
2023/01/23 00:01:36;;;;;;;22.10;10.90;;;;;;;10.86;77.94;101834.75;5034512;28;20057;-90
2023/01/23 00:04:02;;;;;;;32.97;11.70;;;;;;;10.93;77.88;101854.97;5023270;28;20046;-89
2023/01/23 00:06:28;;;;;;;26.02;11.57;;;;;;;10.80;77.98;101836.97;5013359;28;20022;-90
2023/01/23 00:08:57;;;;;;;31.40;12.52;;;;;;;10.88;77.32;101851.69;5016046;28;20041;-89
2023/01/23 00:11:26;;;;;;;29.10;12.20;;;;;;;10.87;76.98;101857.16;5012017;28;20033;-90
2023/01/23 00:13:51;;;;;;;28.20;12.02;;;;;;;10.96;76.92;101842.25;4994506;28;20490;-90
2023/01/23 00:16:21;;;;;;;27.63;12.75;;;;;;;10.96;77.08;101861.09;5022703;28;20037;-88
2023/01/23 00:18:48;;;;;;;28.52;11.65;;;;;;;10.96;76.65;101853.91;5034949;28;20122;-90
2023/01/23 00:21:17;;;;;;;22.65;11.38;;;;;;;10.99;76.36;101863.59;5036599;28;20388;-89
2023/01/23 00:23:45;;;;;;;33.20;11.73;;;;;;;10.96;76.43;101861.09;5035453;28;20030;-89
2023/01/23 00:26:14;;;;;;;30.20;12.50;;;;;;;10.75;76.38;101861.50;5034782;28;20504;-89
2023/01/23 00:28:40;;;;;;;29.20;9.85;;;;;;;10.63;76.75;101878.41;5040373;28;20097;-90
2023/01/23 00:31:11;;;;;;;32.17;11.27;;;;;;;10.79;77.14;101878.31;5022187;28;20025;-88
2023/01/23 00:33:38;;;;;;;31.55;12.40;;;;;;;10.86;76.30;101871.56;5018390;28;20041;-89
2023/01/23 00:36:03;;;;;;;22.83;10.68;;;;;;;10.68;75.46;101870.03;5017408;28;20030;-88
2023/01/23 00:38:29;;;;;;;25.40;11.82;;;;;;;10.60;76.19;101867.84;5017011;28;20033;-89
2023/01/23 00:40:55;;;;;;;26.63;11.25;;;;;;;10.69;76.02;101875.34;5016880;28;20052;-88
2023/01/23 00:43:23;;;;;;;21.33;11.18;;;;;;;10.82;75.53;101878.97;5024685;28;20080;-90
2023/01/23 00:45:48;;;;;;;31.10;11.13;;;;;;;10.70;75.01;101877.03;5014335;28;20069;-89
2023/01/23 00:48:14;;;;;;;20.58;10.45;;;;;;;10.79;74.86;101876.47;5014826;28;20494;-89
2023/01/23 00:50:39;;;;;;;25.15;11.20;;;;;;;10.80;74.23;101886.28;4997477;28;20033;-89
2023/01/23 00:53:05;;;;;;;22.00;10.35;;;;;;;10.74;74.29;101899.25;5009398;28;20455;-89
2023/01/23 00:55:31;;;;;;;19.85;10.65;;;;;;;10.51;74.17;101883.66;5037790;28;20112;-89
2023/01/23 00:57:56;;;;;;;38.05;11.30;;;;;;;10.54;73.47;101884.34;5037243;28;20033;-89
2023/01/23 01:00:22;;;;;;;28.08;11.40;;;;;;;10.72;73.48;101918.19;5055353;28;20030;-90
2023/01/23 01:02:48;;;;;;;22.75;10.57;;;;;;;10.69;73.75;101923.78;5056978;28;20055;-90
2023/01/23 01:05:14;;;;;;;24.55;11.05;;;;;;;10.38;74.79;101910.44;5039984;28;20099;-90
2023/01/23 01:07:40;;;;;;;28.02;11.48;;;;;;;10.42;74.67;101905.75;5015198;28;20079;-89
2023/01/23 01:10:05;;;;;;;29.40;11.90;;;;;;;10.48;74.46;101906.25;5014440;28;20030;-89
2023/01/23 01:12:31;;;;;;;24.08;10.63;;;;;;;10.42;74.77;101916.50;4995708;28;20453;-90
2023/01/23 01:14:56;;;;;;;26.98;11.57;;;;;;;10.49;74.66;101918.72;5013461;28;20033;-89
2023/01/23 01:17:22;;;;;;;27.17;11.55;;;;;;;10.27;74.51;101910.22;5013679;28;20363;-89
2023/01/23 01:19:47;;;;;;;25.92;12.30;;;;;;;10.53;74.81;101930.16;4996626;28;20034;-90
2023/01/23 01:22:13;;;;;;;29.55;11.38;;;;;;;10.37;74.43;101920.34;5016350;28;20063;-90
2023/01/23 01:24:41;;;;;;;26.58;10.98;;;;;;;10.44;74.86;101928.91;5032727;28;20029;-91
2023/01/23 01:27:06;;;;;;;21.48;10.02;;;;;;;10.68;73.77;101929.22;5033709;28;20064;-91
2023/01/23 01:29:32;;;;;;;21.48;10.77;;;;;;;10.67;73.36;101917.59;5032277;28;20033;-89
2023/01/23 01:31:58;;;;;;;22.90;10.57;;;;;;;10.71;72.95;101916.47;5033612;28;20041;-90
2023/01/23 01:34:23;;;;;;;22.77;11.02;;;;;;;10.71;72.08;101913.78;5038710;28;20481;-87
2023/01/23 01:36:50;;;;;;;25.98;10.40;;;;;;;10.69;72.44;101914.81;5019855;28;20176;-90
2023/01/23 01:39:16;;;;;;;32.17;10.50;;;;;;;10.71;72.16;101912.91;5032970;28;20037;-90
2023/01/23 01:41:41;;;;;;;22.50;11.10;;;;;;;10.76;72.16;101919.72;5033099;28;20486;-90
2023/01/23 01:44:16;;;;;;;25.08;11.50;;;;;;;10.72;71.55;101893.97;5015051;28;20054;-90
2023/01/23 01:46:41;;;;;;;29.42;10.85;;;;;;;10.82;72.84;101922.03;5022963;28;20040;-89
2023/01/23 01:49:24;;;;;;;23.50;11.95;;;;;;;10.70;73.16;101916.56;5032744;28;20030;-89
2023/01/23 01:51:59;;;;;;;30.15;11.65;;;;;;;10.76;73.56;101927.78;5015607;28;20025;-90
2023/01/23 01:54:40;;;;;;;31.98;12.20;;;;;;;10.77;74.07;101918.78;5017886;28;20026;-87
2023/01/23 01:57:10;;;;;;;23.92;10.93;;;;;;;10.54;73.03;101926.53;5035098;28;20053;-89
2023/01/23 02:00:00;;;;;;;25.98;11.95;;;;;;;10.52;72.08;101921.22;5037016;28;20031;-89
2023/01/23 02:02:59;;;;;;;24.35;9.80;;;;;;;10.49;71.92;101925.94;5036284;28;20098;-89
2023/01/23 02:05:29;;;;;;;20.90;9.82;;;;;;;10.44;71.67;101926.22;5035031;28;20021;-89
2023/01/23 02:08:14;;;;;;;21.65;10.40;;;;;;;10.54;71.34;101922.00;5033234;28;20072;-89
2023/01/23 02:10:41;;;;;;;19.88;10.40;;;;;;;10.44;71.55;101915.44;5032930;28;20420;-88
2023/01/23 02:13:21;;;;;;;33.35;10.98;;;;;;;10.46;72.00;101912.69;5035564;28;20025;-90
2023/01/23 02:15:47;;;;;;;27.65;10.75;;;;;;;10.30;71.98;101910.88;5037194;28;20032;-89
2023/01/23 02:18:13;;;;;;;25.33;10.75;;;;;;;10.28;72.53;101915.50;5033972;28;20028;-90
2023/01/23 02:20:38;;;;;;;26.50;11.85;;;;;;;10.23;73.20;101905.97;5020743;28;20034;-89
2023/01/23 02:23:19;;;;;;;29.95;12.32;;;;;;;10.22;73.78;101910.50;5016109;28;20030;-89
2023/01/23 02:25:44;;;;;;;25.02;11.93;;;;;;;10.41;74.36;101933.59;5034201;28;20026;-88
2023/01/23 02:28:12;;;;;;;28.63;11.48;;;;;;;10.47;74.24;101927.84;5013185;28;20034;-89
2023/01/23 02:30:39;;;;;;;24.40;11.65;;;;;;;10.41;74.42;101934.47;5031994;28;20051;-88
2023/01/23 02:33:10;;;;;;;32.03;12.50;;;;;;;10.24;75.05;101943.53;5040576;28;20086;-90
2023/01/23 02:35:36;;;;;;;30.88;12.80;;;;;;;10.24;75.13;101934.63;5052581;28;20044;-89
2023/01/23 02:38:04;;;;;;;31.17;12.18;;;;;;;10.34;75.13;101949.22;5057497;28;20026;-89
2023/01/23 02:40:38;;;;;;;30.35;13.30;;;;;;;10.50;74.93;101941.97;5051989;28;20032;-91
2023/01/23 02:43:06;;;;;;;27.27;12.57;;;;;;;10.24;74.25;101940.00;5034165;28;20038;-88
2023/01/23 02:45:32;;;;;;;26.70;12.35;;;;;;;10.08;75.47;101928.38;5014870;28;20041;-88
2023/01/23 02:47:57;;;;;;;38.05;13.90;;;;;;;10.04;75.88;101937.56;5034822;28;20488;-88
2023/01/23 02:50:23;;;;;;;25.98;13.10;;;;;;;10.11;75.96;101941.63;5021759;28;20026;-89
2023/01/23 02:52:50;;;;;;;28.50;12.68;;;;;;;10.09;75.92;101968.59;5012519;28;20503;-90
2023/01/23 02:55:18;;;;;;;26.15;13.32;;;;;;;10.18;75.70;101968.06;5014570;28;20084;-90
2023/01/23 02:57:44;;;;;;;33.42;13.60;;;;;;;10.13;76.04;101974.66;5023488;28;20383;-88
2023/01/23 03:00:18;;;;;;;32.65;14.98;;;;;;;10.15;75.62;101957.50;5024617;28;20113;-88
2023/01/23 03:02:47;;;;;;;34.60;14.30;;;;;;;10.32;75.50;101964.59;5031765;28;20089;-87
2023/01/23 03:05:12;;;;;;;28.73;12.43;;;;;;;10.24;74.81;101953.44;5014991;28;20029;-90
2023/01/23 03:07:38;;;;;;;33.30;14.27;;;;;;;10.25;74.37;101963.22;5018065;28;20037;-90
2023/01/23 03:10:04;;;;;;;31.17;13.32;;;;;;;10.11;74.38;101961.31;4994470;28;20022;-90
2023/01/23 03:12:30;;;;;;;30.52;13.75;;;;;;;10.05;74.72;101966.19;5011591;28;20109;-89
2023/01/23 03:14:56;;;;;;;29.27;13.35;;;;;;;10.10;74.72;101970.31;5010826;28;20129;-91
2023/01/23 03:17:22;;;;;;;36.45;14.77;;;;;;;9.94;74.61;101968.63;5011043;28;20122;-90
2023/01/23 03:19:48;;;;;;;23.50;12.82;;;;;;;9.92;74.88;101954.38;5010897;28;20104;-88
2023/01/23 03:22:14;;;;;;;22.73;12.68;;;;;;;9.85;74.64;101956.56;5011031;28;20025;-90
2023/01/23 03:24:39;;;;;;;32.13;14.23;;;;;;;9.70;75.01;101950.25;5010951;28;20099;-89
2023/01/23 03:27:05;;;;;;;37.35;13.13;;;;;;;9.57;75.24;101943.81;5028104;28;20037;-90
2023/01/23 03:32:16;;;;;;;28.73;12.60;;;;;;;9.55;75.46;101955.59;5030381;28;20095;-89
2023/01/23 03:34:42;;;;;;;29.17;14.32;;;;;;;9.51;75.17;101954.91;5030320;28;20028;-90
2023/01/23 03:37:10;;;;;;;42.10;14.60;;;;;;;9.53;74.96;101969.16;5030257;28;20481;-89
2023/01/23 03:42:21;;;;;;;31.67;12.85;;;;;;;9.46;75.17;101974.91;5030641;28;20100;-90
2023/01/23 03:44:47;;;;;;;27.75;12.95;;;;;;;9.41;74.83;101977.88;5030434;28;20140;-89
2023/01/23 03:47:12;;;;;;;26.50;11.98;;;;;;;9.46;74.71;101983.84;5029938;28;20120;-90
2023/01/23 03:49:38;;;;;;;34.95;12.02;;;;;;;9.41;74.20;101968.94;5030638;28;20022;-90
2023/01/23 03:52:03;;;;;;;30.85;11.65;;;;;;;9.52;73.76;101978.13;5033200;28;20108;-88
2023/01/23 03:54:29;;;;;;;39.38;12.57;;;;;;;9.58;73.52;101987.66;5038088;28;20079;-89
2023/01/23 03:56:54;;;;;;;34.20;13.73;;;;;;;9.52;72.94;101977.25;5044867;28;20031;-89
2023/01/23 03:59:20;;;;;;;23.67;12.55;;;;;;;9.55;72.69;101961.84;5046442;28;20489;-90
2023/01/23 04:01:46;;;;;;;39.80;14.40;;;;;;;9.51;72.61;101970.19;5039742;28;20056;-89
2023/01/23 04:04:12;;;;;;;30.27;13.90;;;;;;;9.44;73.53;101964.28;5057605;28;20033;-89
2023/01/23 04:06:38;;;;;;;32.08;13.50;;;;;;;9.65;73.10;101986.38;5058413;28;20048;-90
2023/01/23 04:09:04;;;;;;;35.88;13.77;;;;;;;9.75;73.12;101993.00;5041431;28;20093;-89
2023/01/23 04:11:30;;;;;;;28.95;13.98;;;;;;;9.82;73.09;101981.78;5039374;28;20056;-89
2023/01/23 04:13:55;;;;;;;32.88;13.43;;;;;;;9.68;72.94;101988.91;5038107;28;20471;-91
2023/01/23 04:16:21;;;;;;;30.40;12.50;;;;;;;9.40;73.80;101977.94;5036664;28;20037;-89
2023/01/23 04:18:51;;;;;;;40.22;14.85;;;;;;;9.31;74.04;101968.59;5042080;28;20564;-90
2023/01/23 04:21:17;;;;;;;25.95;13.18;;;;;;;9.54;74.32;101992.34;5027166;28;20021;-89
2023/01/23 04:23:42;;;;;;;43.60;12.77;;;;;;;9.51;74.04;101971.03;5041149;28;20076;-91
2023/01/23 04:26:08;;;;;;;33.75;14.32;;;;;;;9.61;73.44;101992.88;5035781;28;20121;-88
2023/01/23 04:28:33;;;;;;;51.75;15.02;;;;;;;9.66;73.48;102006.94;5034779;28;20052;-90
2023/01/23 04:30:59;;;;;;;37.15;12.88;;;;;;;9.63;73.18;102007.09;5018854;28;20516;-91
2023/01/23 04:33:24;;;;;;;49.75;13.05;;;;;;;9.47;73.63;102012.44;5035288;28;20036;-90
2023/01/23 04:35:59;;;;;;;29.00;12.68;;;;;;;9.52;73.23;101991.56;5034547;28;20471;-89
2023/01/23 04:38:26;;;;;;;38.00;11.82;;;;;;;9.65;73.59;102016.81;5033839;28;20029;-88
2023/01/23 04:40:52;;;;;;;35.13;13.85;;;;;;;9.50;72.93;101985.44;5017115;28;20127;-88
2023/01/23 04:43:17;;;;;;;49.08;14.75;;;;;;;9.62;73.06;102014.28;5015769;28;20104;-90
2023/01/23 04:45:43;;;;;;;36.78;13.05;;;;;;;9.57;73.00;102010.13;5034057;28;20049;-89
2023/01/23 04:48:12;;;;;;;34.70;12.30;;;;;;;9.63;73.26;102015.16;5033398;28;20029;-89
2023/01/23 04:50:38;;;;;;;45.92;13.88;;;;;;;9.67;73.27;102024.78;5033280;28;20187;-91
2023/01/23 04:53:04;;;;;;;36.65;15.50;;;;;;;9.58;72.67;102026.16;5033906;28;20534;-89
2023/01/23 04:55:30;;;;;;;38.78;15.25;;;;;;;9.64;73.04;102015.06;5033853;28;20025;-85
2023/01/23 04:57:56;;;;;;;43.67;13.77;;;;;;;9.62;72.89;102010.72;5032615;28;20025;-79
2023/01/23 05:00:22;;;;;;;44.88;14.85;;;;;;;9.66;72.55;102018.53;5032476;28;20537;-80
2023/01/23 05:02:48;;;;;;;51.78;14.35;;;;;;;9.76;72.83;102024.25;5032125;28;20037;-81
2023/01/23 05:05:16;;;;;;;49.55;13.52;;;;;;;9.67;72.85;102036.38;5032802;28;20504;-80
2023/01/23 05:07:42;;;;;;;41.90;13.02;;;;;;;9.50;73.47;102032.91;5033052;28;20017;-80
2023/01/23 05:10:08;;;;;;;46.72;13.95;;;;;;;9.15;74.73;102046.38;5032345;28;20087;-80
2023/01/23 05:12:34;;;;;;;39.47;13.95;;;;;;;9.22;75.06;102049.63;5031582;28;20481;-81
2023/01/23 05:14:59;;;;;;;48.30;16.33;;;;;;;9.23;74.88;102041.47;5032302;28;20025;-82
2023/01/23 05:17:25;;;;;;;32.72;14.20;;;;;;;9.26;74.93;102043.16;5032138;28;20455;-82
2023/01/23 05:19:50;;;;;;;36.63;17.40;;;;;;;9.36;74.68;102055.13;5032659;28;20029;-91
2023/01/23 05:22:16;;;;;;;33.33;14.48;;;;;;;9.30;74.15;102060.81;5018021;28;20598;-90
2023/01/23 05:24:42;;;;;;;50.60;15.65;;;;;;;9.32;74.25;102050.00;5021877;28;20108;-87
2023/01/23 05:27:08;;;;;;;38.40;14.38;;;;;;;9.39;73.73;102068.38;5018336;28;20033;-89
2023/01/23 05:29:33;;;;;;;37.58;14.38;;;;;;;9.39;73.15;102073.75;5016963;28;20093;-89
2023/01/23 05:31:59;;;;;;;30.42;13.68;;;;;;;9.35;73.25;102069.50;5000496;28;20474;-90
2023/01/23 05:34:25;;;;;;;34.05;13.38;;;;;;;9.47;73.26;102086.78;4996642;28;20045;-90
2023/01/23 05:36:50;;;;;;;38.47;15.45;;;;;;;9.37;73.09;102089.09;5015253;28;20030;-89
2023/01/23 05:39:15;;;;;;;31.95;14.02;;;;;;;9.37;73.38;102097.13;5015767;28;20232;-89
2023/01/23 05:41:41;;;;;;;36.40;14.18;;;;;;;9.35;73.92;102093.66;5005486;28;20022;-86
2023/01/23 05:44:27;;;;;;;51.65;14.10;;;;;;;9.20;74.00;102094.47;5035897;28;20060;-88
2023/01/23 05:46:53;;;;;;;48.53;16.42;;;;;;;9.01;74.71;102085.63;4973276;28;20126;-89
2023/01/23 05:49:18;;;;;;;36.67;14.02;;;;;;;9.04;74.75;102090.84;4958115;28;20074;-88
2023/01/23 05:51:43;;;;;;;57.65;16.20;;;;;;;9.15;74.94;102099.19;4971856;28;20046;-88
2023/01/23 05:54:09;;;;;;;38.50;15.52;;;;;;;9.12;74.58;102100.22;4972145;28;20031;-83
2023/01/23 05:56:35;;;;;;;50.72;14.90;;;;;;;9.11;74.24;102094.97;4977278;28;20487;-82
2023/01/23 05:59:02;;;;;;;32.38;12.70;;;;;;;8.94;73.40;102081.53;4978905;28;20485;-90
2023/01/23 06:01:28;;;;;;;37.13;12.50;;;;;;;9.02;72.72;102106.16;4973988;28;20042;-85
2023/01/23 06:03:53;;;;;;;43.53;14.13;;;;;;;9.00;72.83;102105.38;4974662;28;20069;-88
2023/01/23 06:06:18;;;;;;;51.33;14.93;;;;;;;8.96;73.23;102106.50;4984563;28;20035;-86
2023/01/23 06:08:44;;;;;;;50.25;15.43;;;;;;;9.21;72.39;102106.94;4985715;28;20029;-84
2023/01/23 06:11:09;;;;;;;47.58;14.65;;;;;;;9.27;72.34;102103.94;4978486;28;20203;-84
2023/01/23 06:13:35;;;;;;;38.28;13.38;;;;;;;9.23;71.89;102111.28;4969216;28;20062;-83
2023/01/23 06:16:01;;;;;;;40.03;13.63;;;;;;;9.21;71.71;102117.66;4971931;28;20066;-80
2023/01/23 06:18:26;;;;;;;39.20;13.13;;;;;;;9.38;71.42;102120.38;4970201;28;20481;-80
2023/01/23 06:20:59;;;;;;;33.75;12.40;;;;;;;9.45;71.54;102115.53;4968452;28;20035;-81
2023/01/23 06:23:26;;;;;;;43.72;12.48;;;;;;;9.55;71.10;102119.44;4977291;28;20033;-82
2023/01/23 06:25:51;;;;;;;61.97;14.32;;;;;;;9.58;70.59;102112.09;5031374;28;20481;-80
2023/01/23 06:28:16;;;;;;;36.35;12.35;;;;;;;9.64;70.21;102111.78;5031545;28;20040;-79
2023/01/23 06:30:42;;;;;;;51.50;14.15;;;;;;;9.71;69.90;102112.31;5031249;28;20029;-80
2023/01/23 06:33:07;;;;;;;26.70;12.60;;;;;;;9.74;69.57;102115.72;5030955;28;20060;-81
2023/01/23 06:35:33;;;;;;;41.45;13.65;;;;;;;9.72;69.17;102117.59;5031797;28;20083;-81
2023/01/23 06:37:58;;;;;;;52.33;14.40;;;;;;;9.80;69.04;102095.69;5032431;28;20026;-80
2023/01/23 06:40:24;;;;;;;34.25;12.55;;;;;;;9.89;67.65;102105.06;5036285;28;20018;-81
2023/01/23 06:42:53;;;;;;;29.60;12.23;;;;;;;9.84;67.35;102108.03;5035634;28;20021;-80
2023/01/23 06:45:19;;;;;;;32.42;12.38;;;;;;;9.77;67.56;102122.72;5036167;28;20136;-80
2023/01/23 06:47:44;;;;;;;32.53;11.18;;;;;;;9.78;67.22;102125.31;5035087;28;20037;-81
2023/01/23 06:50:10;;;;;;;38.10;12.25;;;;;;;9.62;67.11;102126.25;5035398;28;20021;-79
2023/01/23 06:52:35;;;;;;;34.38;11.80;;;;;;;9.62;67.74;102112.81;5030801;28;20493;-82
2023/01/23 06:55:01;;;;;;;35.85;11.38;;;;;;;9.65;68.02;102123.38;5030071;28;20037;-81
2023/01/23 06:57:26;;;;;;;31.10;11.48;;;;;;;9.66;67.67;102136.72;5030426;28;20022;-82
2023/01/23 06:59:52;;;;;;;44.88;12.35;;;;;;;9.34;68.19;102134.88;5030567;28;20570;-80
2023/01/23 07:02:17;;;;;;;22.95;11.00;;;;;;;9.19;69.22;102139.25;5029984;28;20029;-80
2023/01/23 07:04:42;;;;;;;41.05;12.43;;;;;;;9.26;69.16;102142.47;5030207;28;20029;-81
2023/01/23 07:07:08;;;;;;;29.27;10.63;;;;;;;9.04;70.04;102142.72;5030732;28;20532;-82
2023/01/23 07:09:33;;;;;;;22.60;10.60;;;;;;;9.06;69.87;102145.31;5031169;28;20393;-81
2023/01/23 07:11:59;;;;;;;45.72;13.45;;;;;;;9.18;69.86;102150.03;5030612;28;20030;-80
2023/01/23 07:14:26;;;;;;;26.17;11.57;;;;;;;9.11;69.84;102149.47;5030042;28;20464;-81
2023/01/23 07:16:53;;;;;;;36.20;12.23;;;;;;;9.26;69.63;102153.22;5029404;28;20402;-81
2023/01/23 07:19:19;;;;;;;39.45;13.38;;;;;;;9.24;69.64;102150.59;5029823;28;20416;-79
2023/01/23 07:21:47;;;;;;;23.58;11.90;;;;;;;9.40;69.05;102148.00;5029545;28;20087;-80
2023/01/23 07:24:12;;;;;;;27.38;10.00;;;;;;;9.38;68.80;102135.59;5012782;28;20048;-80
2023/01/23 07:26:38;;;;;;;30.13;12.63;;;;;;;9.56;68.77;102172.22;5029017;28;20477;-82
2023/01/23 07:29:05;;;;;;;38.45;12.32;;;;;;;9.39;69.11;102169.56;5029765;28;20041;-82
2023/01/23 07:31:31;;;;;;;50.03;15.15;;;;;;;9.47;69.15;102152.09;5029339;28;20025;-81
2023/01/23 07:33:56;;;;;;;35.40;11.32;;;;;;;9.41;69.12;102160.47;5029403;28;20080;-80
2023/01/23 07:36:21;;;;;;;33.53;12.05;;;;;;;9.41;68.79;102162.28;5029308;28;20768;-80
2023/01/23 07:38:47;;;;;;;29.55;11.85;;;;;;;9.16;69.86;102166.25;5029450;28;20366;-80
2023/01/23 07:41:12;;;;;;;28.73;13.15;;;;;;;9.07;69.97;102163.16;5011833;28;20033;-82
2023/01/23 07:43:38;;;;;;;28.83;12.27;;;;;;;9.20;69.83;102149.00;5029631;28;20515;-80
2023/01/23 07:46:03;;;;;;;64.95;13.50;;;;;;;9.36;69.45;102154.47;5031756;28;20017;-80
2023/01/23 07:48:29;;;;;;;43.92;12.70;;;;;;;9.38;69.21;102157.97;5028995;28;20453;-80
2023/01/23 07:50:54;;;;;;;40.10;13.25;;;;;;;9.57;69.12;102171.28;5029187;28;20056;-80
2023/01/23 07:53:20;;;;;;;36.75;13.20;;;;;;;9.71;68.74;102169.59;5029585;28;20026;-81
2023/01/23 07:55:45;;;;;;;53.97;13.15;;;;;;;9.92;67.90;102169.41;5029684;28;20025;-81
2023/01/23 07:58:11;;;;;;;32.08;12.57;;;;;;;9.99;67.57;102170.81;5029207;28;20131;-81
2023/01/23 08:00:36;;;;;;;23.20;10.75;;;;;;;9.76;66.71;102169.34;5029197;28;20025;-80
2023/01/23 08:03:02;;;;;;;39.08;14.95;;;;;;;9.64;67.59;102170.00;5029014;28;20022;-80
2023/01/23 08:05:27;;;;;;;37.65;11.02;;;;;;;9.64;67.57;102157.44;5028902;28;20052;-79
2023/01/23 08:07:53;;;;;;;34.40;11.45;;;;;;;9.74;67.05;102182.88;5012517;28;20040;-80
2023/01/23 08:10:18;;;;;;;26.83;10.50;;;;;;;9.76;67.12;102175.59;5029662;28;20025;-80
2023/01/23 08:12:44;;;;;;;35.58;12.25;;;;;;;9.56;67.16;102173.09;5029063;28;20117;-81
2023/01/23 08:15:10;;;;;;;43.17;12.02;;;;;;;9.63;67.93;102189.78;5028949;28;20030;-80
2023/01/23 08:17:36;;;;;;;25.38;11.38;;;;;;;9.56;67.62;102199.09;5029119;28;20030;-80
2023/01/23 08:20:02;;;;;;;28.23;10.85;;;;;;;9.36;68.45;102192.06;5028837;28;20033;-80
2023/01/23 08:22:27;;;;;;;27.15;11.15;;;;;;;9.28;69.08;102178.16;5028933;28;20021;-80
2023/01/23 08:24:53;;;;;;;43.97;12.90;;;;;;;9.42;69.14;102190.91;5011129;28;20037;-80
2023/01/23 08:27:18;;;;;;;39.35;12.27;;;;;;;9.32;69.15;102195.88;5028743;28;20045;-80
2023/01/23 08:29:44;;;;;;;26.33;11.70;;;;;;;9.34;69.44;102199.34;5028817;28;20040;-80
2023/01/23 08:32:09;;;;;;;33.08;12.25;;;;;;;9.19;69.65;102190.25;5028586;28;20040;-81
2023/01/23 08:34:35;;;;;;;45.70;14.68;;;;;;;9.35;69.38;102201.06;5028769;28;20021;-80
2023/01/23 08:37:00;;;;;;;40.28;13.60;;;;;;;9.35;68.98;102184.09;5011130;28;20038;-81
2023/01/23 08:39:26;;;;;;;42.13;12.45;;;;;;;9.41;68.74;102190.03;5013878;28;20029;-81
2023/01/23 08:41:51;;;;;;;36.80;13.23;;;;;;;9.40;68.95;102190.97;5032772;28;20464;-79
2023/01/23 08:44:16;;;;;;;38.47;13.23;;;;;;;9.23;68.99;102188.28;5014226;28;20042;-79
2023/01/23 08:46:43;;;;;;;34.90;13.85;;;;;;;9.31;69.06;102188.75;5032235;28;20087;-80
2023/01/23 08:49:09;;;;;;;42.00;12.82;;;;;;;9.51;69.12;102195.78;5032046;28;20481;-80
2023/01/23 08:51:34;;;;;;;37.53;11.38;;;;;;;9.34;67.76;102188.59;5032506;28;20060;-80
2023/01/23 08:54:01;;;;;;;44.83;14.65;;;;;;;9.22;68.27;102186.53;5032197;28;20451;-80
2023/01/23 08:56:26;;;;;;;36.92;11.70;;;;;;;9.24;68.65;102193.56;5032421;28;20031;-79
2023/01/23 08:58:52;;;;;;;31.55;11.98;;;;;;;9.38;68.82;102184.81;5032342;28;20037;-80
2023/01/23 09:01:21;;;;;;;30.02;11.13;;;;;;;9.23;69.10;102180.22;5032452;28;20024;-80
2023/01/23 09:03:47;;;;;;;42.00;14.70;;;;;;;9.25;69.12;102178.31;5032177;28;20475;-81
2023/01/23 09:06:15;;;;;;;31.13;12.18;;;;;;;9.40;69.29;102187.41;5032212;28;20025;-82
2023/01/23 09:08:41;;;;;;;54.58;12.43;;;;;;;9.45;68.87;102186.22;5032950;28;20117;-80
2023/01/23 09:11:09;;;;;;;31.98;12.82;;;;;;;9.52;68.13;102181.38;5033046;28;20033;-81
2023/01/23 09:13:35;;;;;;;41.03;11.70;;;;;;;9.49;68.08;102181.56;5033652;28;20029;-81
2023/01/23 09:16:01;;;;;;;36.15;13.63;;;;;;;9.44;68.25;102184.50;5031872;28;20451;-80
2023/01/23 09:18:27;;;;;;;30.38;11.00;;;;;;;9.36;68.68;102181.31;5031996;28;20021;-81
2023/01/23 09:20:53;;;;;;;47.60;12.68;;;;;;;9.51;68.27;102185.88;5031606;28;20033;-80
2023/01/23 09:23:19;;;;;;;37.50;13.10;;;;;;;9.54;68.34;102187.56;5031369;28;20053;-80
2023/01/23 09:25:45;;;;;;;24.92;11.57;;;;;;;9.57;68.19;102177.50;5031406;28;20100;-82
2023/01/23 09:28:10;;;;;;;41.70;13.80;;;;;;;9.67;67.73;102175.22;5031383;28;20128;-81
2023/01/23 09:30:36;;;;;;;27.65;13.25;;;;;;;9.66;67.36;102179.72;5031246;28;20496;-81
2023/01/23 09:33:02;;;;;;;39.58;11.40;;;;;;;9.60;67.65;102182.72;5031533;28;20580;-80
2023/01/23 09:35:56;;;;;;;39.58;12.90;;;;;;;9.64;66.96;102187.00;5031421;28;20529;-81
2023/01/23 09:38:23;;;;;;;24.85;10.73;;;;;;;9.55;67.01;102176.72;4941831;28;20125;-81
2023/01/23 09:40:52;;;;;;;41.45;13.65;;;;;;;9.62;67.24;102185.34;4969817;28;20034;-82
2023/01/23 09:43:39;;;;;;;36.25;10.88;;;;;;;9.60;66.43;102174.66;4969957;28;20043;-81
2023/01/23 09:46:17;;;;;;;49.17;11.25;;;;;;;9.46;66.17;102182.59;4969968;28;20051;-83
2023/01/23 09:48:53;;;;;;;33.05;12.05;;;;;;;9.29;67.13;102179.91;4969953;28;20490;-80
2023/01/23 09:51:32;;;;;;;25.38;12.40;;;;;;;9.25;67.18;102189.94;4969843;28;20038;-80
2023/01/23 09:54:06;;;;;;;28.83;12.18;;;;;;;9.17;67.10;102191.28;4969675;28;20039;-80
2023/01/23 09:56:40;;;;;;;26.58;12.82;;;;;;;9.22;67.54;102197.28;4969568;28;20050;-79
2023/01/23 09:59:23;;;;;;;35.35;12.43;;;;;;;9.16;67.46;102195.78;4971990;28;20490;-81
2023/01/23 10:01:50;;;;;;;35.67;11.70;;;;;;;9.29;67.03;102191.50;4969679;28;20031;-79
2023/01/23 10:04:18;;;;;;;27.17;11.75;;;;;;;9.27;66.82;102188.03;4969943;28;20058;-79
2023/01/23 10:07:04;;;;;;;28.75;11.63;;;;;;;9.31;67.09;102183.38;4969770;28;20073;-79
2023/01/23 10:09:39;;;;;;;37.63;14.05;;;;;;;9.41;66.81;102176.59;4969436;28;20039;-79
2023/01/23 10:12:10;;;;;;;44.88;13.55;;;;;;;9.53;66.48;102175.97;4972752;28;20035;-81
2023/01/23 10:14:54;;;;;;;104.30;19.92;;;;;;;9.53;66.75;102162.53;4971838;28;20046;-79
2023/01/23 10:17:40;;;;;;;30.45;13.00;;;;;;;9.47;66.56;102160.16;4969860;28;20038;-82
2023/01/23 10:20:24;;;;;;;37.58;12.35;;;;;;;9.46;66.07;102169.16;4953613;28;20026;-81
2023/01/23 10:23:13;;;;;;;32.83;13.95;;;;;;;9.42;66.67;102169.41;4969773;28;20431;-80
2023/01/23 10:25:39;;;;;;;36.35;13.48;;;;;;;9.23;67.03;102174.84;4953159;28;20517;-79
2023/01/23 10:28:22;;;;;;;55.15;16.77;;;;;;;9.18;67.57;102166.16;4969337;28;20124;-79
2023/01/23 10:30:57;;;;;;;35.72;13.45;;;;;;;9.27;67.63;102154.94;4969537;28;20545;-80
2023/01/23 10:33:33;;;;;;;38.13;14.88;;;;;;;9.48;67.34;102161.88;4969446;28;20027;-81
2023/01/23 10:36:13;;;;;;;49.28;14.45;;;;;;;9.60;67.24;102157.69;5021938;28;20033;-81
2023/01/23 10:38:48;;;;;;;37.60;14.15;;;;;;;9.58;66.56;102160.44;5030978;28;20021;-81
2023/01/23 10:41:20;;;;;;;34.13;13.65;;;;;;;9.59;66.31;102161.31;5030915;28;20489;-80
2023/01/23 10:43:49;;;;;;;44.03;13.48;;;;;;;9.34;66.94;102161.75;5030668;28;20036;-81
2023/01/23 10:46:18;;;;;;;41.92;15.48;;;;;;;9.33;67.41;102160.00;5031964;28;20029;-80
2023/01/23 10:48:53;;;;;;;39.63;14.38;;;;;;;9.17;67.70;102170.66;5031460;28;20037;-79
2023/01/23 10:51:37;;;;;;;29.40;12.95;;;;;;;9.11;67.74;102170.13;5032938;28;20079;-80
2023/01/23 10:54:18;;;;;;;32.17;13.85;;;;;;;9.17;68.28;102159.06;5034639;28;20036;-80
2023/01/23 10:56:57;;;;;;;23.23;12.57;;;;;;;9.20;67.42;102158.91;5035074;28;20037;-79
2023/01/23 10:59:28;;;;;;;42.80;15.48;;;;;;;9.27;67.27;102154.94;5033457;28;20061;-79
2023/01/23 11:02:02;;;;;;;38.80;13.45;;;;;;;9.26;66.90;102137.97;5033643;28;20499;-79
2023/01/23 11:04:30;;;;;;;42.03;15.32;;;;;;;9.18;66.91;102147.34;5032453;28;20026;-80
2023/01/23 11:07:02;;;;;;;36.03;15.25;;;;;;;9.18;67.11;102144.69;5030304;28;20021;-80
2023/01/23 11:09:27;;;;;;;31.00;13.93;;;;;;;9.09;66.98;102156.75;5030322;28;20044;-77
2023/01/23 11:12:04;;;;;;;33.70;15.02;;;;;;;8.95;67.03;102153.91;5033997;28;20045;-81
2023/01/23 11:14:30;;;;;;;43.65;13.68;;;;;;;8.99;67.28;102160.00;5033223;28;20030;-79
2023/01/23 11:17:23;;;;;;;41.65;15.80;;;;;;;9.06;67.18;102161.41;5031895;28;20116;-79
2023/01/23 11:19:53;;;;;;;31.83;15.32;;;;;;;9.18;66.96;102155.41;4949512;29;20503;-79
2023/01/23 11:22:40;;;;;;;35.13;14.35;;;;;;;9.21;66.07;102155.25;4930168;29;20746;-81
2023/01/23 11:25:40;;;;;;;32.72;14.48;;;;;;;9.20;66.30;102158.91;4930246;29;20133;-82